createdAt,value
2018-02-21T00:01:59.422Z,29.20
2018-02-21T00:04:27.131Z,29.20
2018-02-21T00:06:54.814Z,29.20
2018-02-21T00:09:23.262Z,29.10
2018-02-21T00:11:50.952Z,29.10
2018-02-21T00:14:18.611Z,29.10
2018-02-21T00:16:46.293Z,29.20
2018-02-21T00:19:13.978Z,29.20
2018-02-21T00:21:42.419Z,29.50
2018-02-21T00:24:10.106Z,29.50
2018-02-21T00:26:37.767Z,29.50
2018-02-21T00:29:05.421Z,29.40
2018-02-21T00:31:33.065Z,29.20
2018-02-21T00:34:00.722Z,29.20
2018-02-21T00:36:28.367Z,29.10
2018-02-21T00:38:56.035Z,29.10
2018-02-21T00:41:23.712Z,29.10
2018-02-21T00:43:51.364Z,29.00
2018-02-21T00:46:19.785Z,29.00
2018-02-21T00:48:48.253Z,28.90
2018-02-21T00:51:16.725Z,29.00
2018-02-21T00:53:44.416Z,29.00
2018-02-21T00:56:12.085Z,29.00
2018-02-21T00:58:39.744Z,29.00
2018-02-21T01:01:07.407Z,28.90
2018-02-21T01:03:35.825Z,28.80
2018-02-21T01:06:04.278Z,28.80
2018-02-21T01:08:31.991Z,28.70
2018-02-21T01:11:00.439Z,28.80
2018-02-21T01:13:28.127Z,28.80
2018-02-21T01:15:55.827Z,28.70
2018-02-21T01:18:23.488Z,28.70
2018-02-21T01:20:51.150Z,28.70
2018-02-21T01:23:18.814Z,28.80
2018-02-21T01:25:46.493Z,29.10
2018-02-21T01:28:14.214Z,29.60
2018-02-21T01:30:42.710Z,30.00
2018-02-21T01:33:10.368Z,30.00
2018-02-21T01:35:38.052Z,30.50
2018-02-21T01:38:05.715Z,30.80
2018-02-21T01:40:33.398Z,30.80
2018-02-21T01:43:01.093Z,30.60
2018-02-21T01:45:29.538Z,30.50
2018-02-21T01:47:57.226Z,30.50
2018-02-21T01:50:25.766Z,30.50
2018-02-21T01:52:53.462Z,30.50
2018-02-21T01:55:21.871Z,30.50
2018-02-21T01:57:49.557Z,30.50
2018-02-21T02:00:17.255Z,30.60
2018-02-21T02:02:44.923Z,30.50
2018-02-21T02:05:12.594Z,30.40
2018-02-21T02:07:41.027Z,30.60
2018-02-21T02:10:08.725Z,30.60
2018-02-21T02:12:37.151Z,30.40
2018-02-21T02:15:04.837Z,30.40
2018-02-21T02:17:33.258Z,30.20
2018-02-21T02:20:01.724Z,30.20
2018-02-21T02:22:30.160Z,30.30
2018-02-21T02:24:57.822Z,30.10
2018-02-21T02:27:25.515Z,30.30
2018-02-21T02:29:53.245Z,30.30
2018-02-21T02:32:20.905Z,30.20
2018-02-21T02:34:48.611Z,30.20
2018-02-21T02:37:17.050Z,30.10
2018-02-21T02:39:51.454Z,30.00
2018-02-21T02:42:19.119Z,29.90
2018-02-21T02:44:46.813Z,29.70
2018-02-21T02:47:14.484Z,30.00
2018-02-21T02:49:42.942Z,29.50
2018-02-21T02:52:10.620Z,29.50
2018-02-21T02:54:38.333Z,29.50
2018-02-21T02:57:06.003Z,29.90
2018-02-21T02:59:33.679Z,29.40
2018-02-21T03:02:01.340Z,29.40
2018-02-21T03:04:29.047Z,29.40
2018-02-21T03:06:57.474Z,29.30
2018-02-21T03:09:25.163Z,29.30
2018-02-21T03:11:52.827Z,29.30
2018-02-21T03:14:20.506Z,29.30
2018-02-21T03:16:49.836Z,29.20
2018-02-21T03:19:17.548Z,29.20
2018-02-21T03:21:45.255Z,29.20
2018-02-21T03:24:12.919Z,29.70
2018-02-21T03:26:40.614Z,29.20
2018-02-21T03:29:08.268Z,29.20
2018-02-21T03:31:36.716Z,29.10
2018-02-21T03:34:04.385Z,29.10
2018-02-21T03:36:32.102Z,29.10
2018-02-21T03:39:00.599Z,29.30
2018-02-21T03:41:28.286Z,29.30
2018-02-21T03:43:55.962Z,29.30
2018-02-21T03:46:23.616Z,29.40
2018-02-21T03:48:51.299Z,29.50
2018-02-21T03:51:18.959Z,29.50
2018-02-21T03:53:47.407Z,29.50
2018-02-21T03:56:15.096Z,29.50
2018-02-21T03:58:42.761Z,29.60
2018-02-21T04:01:10.434Z,29.60
2018-02-21T04:03:38.103Z,29.70
2018-02-21T04:06:05.748Z,29.70
2018-02-21T04:08:33.411Z,29.70
2018-02-21T04:11:01.067Z,29.70
2018-02-21T04:13:28.756Z,29.60
2018-02-21T04:15:57.175Z,29.60
2018-02-21T04:18:24.848Z,29.50
2018-02-21T04:20:52.519Z,29.40
2018-02-21T04:23:20.181Z,29.20
2018-02-21T04:25:48.614Z,29.10
2018-02-21T04:28:16.287Z,29.00
2018-02-21T04:30:43.991Z,29.00
2018-02-21T04:33:11.731Z,29.10
2018-02-21T04:35:39.419Z,29.10
2018-02-21T04:38:07.928Z,29.10
2018-02-21T04:40:36.385Z,29.10
2018-02-21T04:43:04.032Z,29.10
2018-02-21T04:45:31.734Z,29.10
2018-02-21T04:48:00.174Z,29.20
2018-02-21T04:50:27.840Z,29.20
2018-02-21T04:52:55.547Z,29.20
2018-02-21T04:55:42.862Z,29.30
2018-02-21T04:58:30.180Z,29.30
2018-02-21T05:00:57.953Z,29.30
2018-02-21T05:03:25.635Z,29.30
2018-02-21T05:05:53.325Z,29.40
2018-02-21T05:08:21.025Z,29.40
2018-02-21T05:10:49.435Z,29.50
2018-02-21T05:13:17.136Z,29.50
2018-02-21T05:15:44.807Z,29.50
2018-02-21T05:18:13.214Z,29.50
2018-02-21T05:20:40.902Z,29.50
2018-02-21T05:23:08.571Z,29.50
2018-02-21T05:25:36.235Z,29.50
2018-02-21T05:28:03.919Z,29.50
2018-02-21T05:30:31.636Z,29.40
2018-02-21T05:32:59.304Z,29.40
2018-02-21T05:35:26.994Z,29.40
2018-02-21T05:37:54.668Z,29.40
2018-02-21T05:40:22.332Z,29.40
2018-02-21T05:42:50.783Z,29.40
2018-02-21T05:45:18.474Z,29.40
2018-02-21T05:47:46.906Z,29.50
2018-02-21T05:50:14.589Z,29.50
2018-02-21T05:52:42.235Z,29.50
2018-02-21T05:55:09.949Z,29.60
2018-02-21T05:57:37.652Z,29.60
2018-02-21T06:00:05.355Z,29.60
2018-02-21T06:02:33.775Z,29.70
2018-02-21T06:05:01.453Z,29.70
2018-02-21T06:07:29.150Z,29.70
2018-02-21T06:09:56.810Z,29.70
2018-02-21T06:12:24.478Z,30.20
2018-02-21T06:14:52.153Z,29.40
2018-02-21T06:17:20.609Z,29.90
2018-02-21T06:19:48.283Z,29.90
2018-02-21T06:22:16.730Z,29.80
2018-02-21T06:24:44.382Z,29.70
2018-02-21T06:27:12.031Z,29.60
2018-02-21T06:29:39.716Z,29.60
2018-02-21T06:32:07.398Z,29.60
2018-02-21T06:34:35.848Z,29.70
2018-02-21T06:37:03.508Z,29.60
2018-02-21T06:39:31.179Z,29.70
2018-02-21T06:41:58.898Z,29.70
2018-02-21T06:44:26.563Z,29.70
2018-02-21T06:46:54.244Z,29.80
2018-02-21T06:49:21.915Z,29.80
2018-02-21T06:51:49.595Z,29.90
2018-02-21T06:54:17.242Z,29.80
2018-02-21T06:56:45.009Z,29.80
2018-02-21T06:59:12.688Z,29.80
2018-02-21T07:01:40.393Z,29.80
2018-02-21T07:04:08.068Z,29.90
2018-02-21T07:06:35.786Z,29.90
2018-02-21T07:09:04.278Z,29.90
2018-02-21T07:11:31.923Z,29.90
2018-02-21T07:14:00.369Z,29.90
2018-02-21T07:16:28.046Z,29.80
2018-02-21T07:18:55.731Z,29.90
2018-02-21T07:21:24.163Z,30.00
2018-02-21T07:23:52.655Z,30.00
2018-02-21T07:26:20.295Z,29.90
2018-02-21T07:28:47.995Z,30.00
2018-02-21T07:31:16.459Z,30.00
2018-02-21T07:33:44.116Z,29.90
2018-02-21T07:36:11.809Z,30.00
2018-02-21T07:38:40.274Z,30.00
2018-02-21T07:41:08.703Z,30.00
2018-02-21T07:43:36.409Z,30.00
2018-02-21T07:46:04.206Z,30.00
2018-02-21T07:48:31.910Z,30.10
2018-02-21T07:50:59.664Z,30.00
2018-02-21T07:53:28.094Z,30.00
2018-02-21T07:55:56.516Z,30.10
2018-02-21T07:58:24.191Z,30.10
2018-02-21T08:00:51.879Z,30.10
2018-02-21T08:03:19.556Z,30.10
2018-02-21T08:05:47.979Z,30.40
2018-02-21T08:08:15.634Z,30.40
2018-02-21T08:10:43.271Z,30.40
2018-02-21T08:13:10.946Z,30.40
2018-02-21T08:15:38.622Z,30.50
2018-02-21T08:18:06.283Z,30.50
2018-02-21T08:20:34.021Z,30.60
2018-02-21T08:23:01.750Z,30.70
2018-02-21T08:25:30.211Z,30.80
2018-02-21T08:27:57.900Z,30.80
2018-02-21T08:30:26.320Z,30.80
2018-02-21T08:32:53.964Z,30.80
2018-02-21T08:35:21.635Z,30.90
2018-02-21T08:37:49.283Z,31.00
2018-02-21T08:40:16.946Z,31.00
2018-02-21T08:42:44.656Z,31.00
2018-02-21T08:45:12.326Z,31.10
2018-02-21T08:47:39.968Z,31.30
2018-02-21T08:50:07.630Z,31.60
2018-02-21T08:52:35.290Z,31.70
2018-02-21T08:55:02.959Z,31.80
2018-02-21T08:57:30.627Z,31.90
2018-02-21T08:59:58.330Z,31.90
2018-02-21T09:02:25.999Z,31.90
2018-02-21T09:04:53.671Z,31.80
2018-02-21T09:07:21.335Z,31.70
2018-02-21T09:09:49.003Z,31.70
2018-02-21T09:12:16.683Z,31.70
2018-02-21T09:14:44.355Z,31.60
2018-02-21T09:17:12.038Z,31.70
2018-02-21T09:19:39.742Z,31.80
2018-02-21T09:22:07.434Z,31.80
2018-02-21T09:24:35.088Z,31.80
2018-02-21T09:27:02.775Z,31.90
2018-02-21T09:29:31.275Z,32.10
2018-02-21T09:31:59.003Z,32.10
2018-02-21T09:34:26.642Z,32.00
2018-02-21T09:36:54.289Z,32.00
2018-02-21T09:39:21.942Z,31.90
2018-02-21T09:41:49.587Z,31.90
2018-02-21T09:44:17.247Z,31.90
2018-02-21T09:46:44.918Z,31.90
2018-02-21T09:49:12.565Z,31.90
2018-02-21T09:51:40.224Z,31.60
2018-02-21T09:54:07.873Z,31.60
2018-02-21T09:56:35.546Z,31.60
2018-02-21T09:59:03.194Z,31.70
2018-02-21T10:01:30.854Z,31.90
2018-02-21T10:03:58.514Z,32.00
2018-02-21T10:06:26.259Z,31.90
2018-02-21T10:08:53.912Z,32.00
2018-02-21T10:11:21.552Z,32.20
2018-02-21T10:13:49.192Z,32.20
2018-02-21T10:16:16.889Z,32.10
2018-02-21T10:18:44.547Z,32.10
2018-02-21T10:21:12.188Z,32.10
2018-02-21T10:23:39.832Z,32.10
2018-02-21T10:26:07.480Z,32.10
2018-02-21T10:28:35.155Z,32.30
2018-02-21T10:31:02.790Z,32.30
2018-02-21T10:33:30.472Z,32.30
2018-02-21T10:35:58.128Z,32.20
2018-02-21T10:38:25.780Z,32.30
2018-02-21T10:40:53.452Z,32.10
2018-02-21T10:43:21.105Z,32.00
2018-02-21T10:45:48.745Z,31.70
2018-02-21T10:48:16.391Z,31.50
2018-02-21T10:50:44.811Z,31.40
2018-02-21T10:53:12.483Z,31.40
2018-02-21T10:55:40.150Z,31.20
2018-02-21T10:58:07.853Z,31.00
2018-02-21T11:00:42.031Z,31.00
2018-02-21T11:03:09.703Z,31.00
2018-02-21T11:05:37.360Z,31.00
2018-02-21T11:08:05.022Z,30.50
2018-02-21T11:10:32.665Z,30.10
2018-02-21T11:13:00.315Z,30.00
2018-02-21T11:15:27.975Z,29.80
2018-02-21T11:17:55.615Z,29.60
2018-02-21T11:20:23.317Z,29.60
2018-02-21T11:22:50.975Z,29.50
2018-02-21T11:25:18.676Z,29.50
2018-02-21T11:27:47.141Z,29.70
2018-02-21T11:30:15.594Z,29.50
2018-02-21T11:32:43.247Z,29.50
2018-02-21T11:35:10.901Z,29.30
2018-02-21T11:37:38.567Z,29.20
2018-02-21T11:40:06.223Z,29.30
2018-02-21T11:42:34.827Z,29.50
2018-02-21T11:45:02.502Z,29.50
2018-02-21T11:47:30.943Z,29.30
2018-02-21T11:49:58.620Z,29.30
2018-02-21T11:52:26.261Z,29.30
2018-02-21T11:54:53.932Z,29.10
2018-02-21T11:57:21.651Z,29.10
2018-02-21T11:59:49.333Z,29.30
2018-02-21T12:02:16.994Z,29.30
2018-02-21T12:04:44.694Z,29.30
2018-02-21T12:07:13.155Z,29.70
2018-02-21T12:09:41.561Z,29.30
2018-02-21T12:12:09.264Z,29.80
2018-02-21T12:14:36.946Z,29.20
2018-02-21T12:17:04.583Z,29.10
2018-02-21T12:19:32.240Z,29.10
2018-02-21T12:21:59.898Z,29.10
2018-02-21T12:24:27.542Z,29.10
2018-02-21T12:26:55.960Z,28.90
2018-02-21T12:29:24.432Z,28.90
2018-02-21T12:31:53.945Z,28.90
2018-02-21T12:34:21.580Z,28.90
2018-02-21T12:36:49.224Z,28.90
2018-02-21T12:39:23.213Z,28.90
2018-02-21T12:41:50.856Z,28.90
2018-02-21T12:44:18.497Z,28.90
2018-02-21T12:46:46.157Z,29.10
2018-02-21T12:49:13.808Z,29.10
2018-02-21T12:51:41.465Z,29.10
2018-02-21T12:54:09.160Z,29.30
2018-02-21T12:56:36.881Z,29.50
2018-02-21T12:59:04.544Z,29.50
2018-02-21T13:01:32.212Z,29.50
2018-02-21T13:03:59.861Z,29.40
2018-02-21T13:06:27.524Z,29.10
2018-02-21T13:08:55.182Z,28.90
2018-02-21T13:11:22.843Z,28.90
2018-02-21T13:13:50.520Z,28.80
2018-02-21T13:16:18.207Z,28.90
2018-02-21T13:18:45.848Z,28.90
2018-02-21T13:21:13.629Z,29.00
2018-02-21T13:23:41.277Z,28.90
2018-02-21T13:26:08.911Z,28.80
2018-02-21T13:28:36.584Z,28.70
2018-02-21T13:31:04.299Z,28.80
2018-02-21T13:33:32.788Z,28.20
2018-02-21T13:36:01.289Z,28.00
2018-02-21T13:38:28.923Z,28.00
2018-02-21T13:40:57.361Z,27.60
2018-02-21T13:43:25.812Z,27.50
2018-02-21T13:45:53.527Z,27.40
2018-02-21T13:48:21.232Z,27.40
2018-02-21T13:50:48.920Z,27.30
2018-02-21T13:53:16.590Z,27.30
2018-02-21T13:55:44.234Z,27.10
2018-02-21T13:58:11.899Z,26.60
2018-02-21T14:00:39.546Z,26.20
2018-02-21T14:03:07.203Z,26.20
2018-02-21T14:05:34.861Z,26.20
2018-02-21T14:08:02.620Z,26.10
2018-02-21T14:10:30.266Z,26.10
2018-02-21T14:12:57.919Z,26.00
2018-02-21T14:15:26.333Z,26.20
2018-02-21T14:17:53.999Z,26.20
2018-02-21T14:20:21.630Z,26.30
2018-02-21T14:22:49.277Z,26.30
2018-02-21T14:25:17.736Z,26.20
2018-02-21T14:27:45.436Z,26.20
2018-02-21T14:30:13.067Z,25.70
2018-02-21T14:32:41.485Z,25.60
2018-02-21T14:35:09.908Z,25.60
2018-02-21T14:37:37.552Z,25.60
2018-02-21T14:40:05.247Z,25.60
2018-02-21T14:42:33.718Z,25.40
2018-02-21T14:45:02.439Z,25.40
2018-02-21T14:47:30.157Z,25.40
2018-02-21T14:49:57.834Z,25.40
2018-02-21T14:52:26.289Z,25.50
2018-02-21T14:54:53.970Z,25.40
2018-02-21T14:57:22.430Z,25.70
2018-02-21T14:59:50.102Z,25.70
2018-02-21T15:02:17.809Z,25.70
2018-02-21T15:04:45.529Z,25.60
2018-02-21T15:07:13.961Z,25.50
2018-02-21T15:09:41.658Z,25.50
2018-02-21T15:12:09.333Z,25.40
2018-02-21T15:14:37.777Z,25.20
2018-02-21T15:17:05.448Z,25.20
2018-02-21T15:19:33.173Z,25.40
2018-02-21T15:22:00.924Z,25.60
2018-02-21T15:24:28.620Z,25.70
2018-02-21T15:26:56.302Z,25.80
2018-02-21T15:29:24.826Z,25.80
2018-02-21T15:31:52.570Z,25.90
2018-02-21T15:34:21.036Z,24.50
2018-02-21T15:36:48.719Z,24.40
2018-02-21T15:39:17.191Z,25.00
2018-02-21T15:41:45.648Z,25.30
2018-02-21T15:44:13.399Z,25.20
2018-02-21T15:46:41.149Z,25.40
2018-02-21T15:49:08.837Z,25.40
2018-02-21T15:51:36.500Z,25.60
2018-02-21T15:54:04.231Z,25.70
2018-02-21T15:56:31.938Z,25.70
2018-02-21T15:59:00.390Z,25.90
2018-02-21T16:01:28.080Z,25.90
2018-02-21T16:03:56.533Z,26.00
2018-02-21T16:06:24.277Z,25.90
2018-02-21T16:08:52.765Z,26.10
2018-02-21T16:11:20.486Z,26.10
2018-02-21T16:13:48.169Z,26.10
2018-02-21T16:16:15.857Z,26.20
2018-02-21T16:18:43.595Z,26.30
2018-02-21T16:21:11.306Z,26.40
2018-02-21T16:23:39.754Z,26.50
2018-02-21T16:26:07.434Z,26.50
2018-02-21T16:28:35.150Z,26.50
2018-02-21T16:31:02.863Z,26.60
2018-02-21T16:33:31.339Z,26.70
2018-02-21T16:35:59.073Z,26.70
2018-02-21T16:38:27.382Z,26.30
2018-02-21T16:40:55.856Z,26.80
2018-02-21T16:43:23.544Z,26.80
2018-02-21T16:45:51.244Z,26.60
2018-02-21T16:48:18.907Z,26.90
2018-02-21T16:50:46.577Z,27.20
2018-02-21T16:53:14.248Z,27.20
2018-02-21T16:55:41.986Z,27.30
2018-02-21T16:58:09.713Z,27.40
2018-02-21T17:00:37.468Z,27.40
2018-02-21T17:03:05.927Z,27.50
2018-02-21T17:05:33.615Z,27.40
2018-02-21T17:08:01.315Z,27.40
2018-02-21T17:10:28.998Z,27.40
2018-02-21T17:12:56.693Z,27.40
2018-02-21T17:15:24.385Z,27.40
2018-02-21T17:17:52.096Z,27.40
2018-02-21T17:20:19.844Z,27.40
2018-02-21T17:22:47.572Z,27.40
2018-02-21T17:25:15.342Z,27.40
2018-02-21T17:27:43.051Z,27.40
2018-02-21T17:30:11.575Z,27.30
2018-02-21T17:32:39.400Z,27.30
2018-02-21T17:35:07.073Z,27.30
2018-02-21T17:37:35.523Z,27.50
2018-02-21T17:40:03.337Z,28.00
2018-02-21T17:42:31.023Z,27.60
2018-02-21T17:44:58.704Z,27.70
2018-02-21T17:47:26.385Z,27.70
2018-02-21T17:49:54.831Z,27.80
2018-02-21T17:52:22.510Z,27.80
2018-02-21T17:54:50.172Z,27.80
2018-02-21T17:57:17.835Z,27.90
2018-02-21T17:59:45.517Z,28.00
2018-02-21T18:02:14.000Z,28.10
2018-02-21T18:04:42.457Z,28.10
2018-02-21T18:07:10.930Z,28.20
2018-02-21T18:09:38.604Z,28.10
2018-02-21T18:12:07.125Z,28.20
2018-02-21T18:14:34.799Z,28.20
2018-02-21T18:17:02.487Z,28.20
2018-02-21T18:19:30.143Z,28.30
2018-02-21T18:21:57.838Z,28.40
2018-02-21T18:24:26.279Z,28.40
2018-02-21T18:26:53.965Z,28.30
2018-02-21T18:29:22.427Z,28.60
2018-02-21T18:31:50.133Z,28.50
2018-02-21T18:34:17.800Z,28.60
2018-02-21T18:36:45.509Z,28.70
2018-02-21T18:39:13.191Z,28.70
2018-02-21T18:41:41.597Z,28.90
2018-02-21T18:44:09.261Z,28.80
2018-02-21T18:46:36.923Z,28.90
2018-02-21T18:49:04.566Z,29.00
2018-02-21T18:51:33.010Z,29.10
2018-02-21T18:54:00.709Z,29.00
2018-02-21T18:56:28.386Z,29.10
2018-02-21T18:58:56.068Z,29.10
2018-02-21T19:01:23.735Z,29.20
2018-02-21T19:03:51.421Z,29.20
2018-02-21T19:06:19.098Z,29.30
2018-02-21T19:08:47.534Z,29.30
2018-02-21T19:11:15.966Z,29.20
2018-02-21T19:13:44.403Z,29.30
2018-02-21T19:16:12.059Z,29.30
2018-02-21T19:18:39.734Z,29.40
2018-02-21T19:21:07.396Z,29.50
2018-02-21T19:23:35.136Z,29.40
2018-02-21T19:26:02.791Z,29.80
2018-02-21T19:28:30.458Z,29.50
2018-02-21T19:30:58.126Z,29.50
2018-02-21T19:33:25.823Z,29.50
2018-02-21T19:35:54.265Z,29.40
2018-02-21T19:38:21.965Z,29.40
2018-02-21T19:40:50.395Z,29.30
2018-02-21T19:43:18.056Z,29.30
2018-02-21T19:45:45.746Z,29.30
2018-02-21T19:48:13.406Z,29.20
2018-02-21T19:50:41.050Z,29.10
2018-02-21T19:53:09.513Z,28.90
2018-02-21T19:55:37.146Z,28.80
2018-02-21T19:58:04.838Z,28.80
2018-02-21T20:00:32.487Z,28.80
2018-02-21T20:03:00.130Z,28.60
2018-02-21T20:05:27.804Z,28.50
2018-02-21T20:07:55.480Z,28.50
2018-02-21T20:10:23.136Z,28.90
2018-02-21T20:12:50.785Z,28.40
2018-02-21T20:15:18.431Z,28.40
2018-02-21T20:17:46.072Z,28.40
2018-02-21T20:20:14.536Z,28.30
2018-02-21T20:22:42.199Z,28.20
2018-02-21T20:25:09.851Z,28.20
2018-02-21T20:27:37.514Z,28.10
2018-02-21T20:30:06.074Z,28.10
2018-02-21T20:32:34.475Z,28.10
2018-02-21T20:35:02.146Z,28.10
2018-02-21T20:37:30.569Z,28.10
2018-02-21T20:39:58.249Z,28.10
2018-02-21T20:42:25.985Z,28.10
2018-02-21T20:44:53.675Z,28.10
2018-02-21T20:47:21.318Z,28.00
2018-02-21T20:49:49.035Z,28.00
2018-02-21T20:52:17.474Z,28.00
2018-02-21T20:54:45.131Z,28.00
2018-02-21T20:57:12.802Z,28.00
2018-02-21T20:59:40.476Z,28.00
2018-02-21T21:02:08.186Z,28.00
2018-02-21T21:04:35.916Z,28.00
2018-02-21T21:07:04.346Z,28.00
2018-02-21T21:09:32.021Z,27.90
2018-02-21T21:11:59.686Z,28.00
2018-02-21T21:14:27.362Z,28.60
2018-02-21T21:16:55.100Z,28.00
2018-02-21T21:19:22.889Z,28.00
2018-02-21T21:21:50.598Z,28.00
2018-02-21T21:24:18.257Z,27.90
2018-02-21T21:26:45.926Z,27.90
2018-02-21T21:29:13.590Z,27.80
2018-02-21T21:31:41.222Z,27.80
2018-02-21T21:34:08.891Z,27.70
2018-02-21T21:36:36.525Z,27.70
2018-02-21T21:39:05.031Z,27.70
2018-02-21T21:41:32.710Z,27.60
2018-02-21T21:44:00.369Z,27.60
2018-02-21T21:46:28.027Z,27.50
2018-02-21T21:48:55.708Z,27.50
2018-02-21T21:51:23.348Z,27.40
2018-02-21T21:53:51.813Z,27.60
2018-02-21T21:56:19.487Z,27.30
2018-02-21T21:58:47.146Z,27.40
2018-02-21T22:01:14.826Z,27.30
2018-02-21T22:03:42.463Z,27.20
2018-02-21T22:06:10.131Z,27.10
2018-02-21T22:08:37.787Z,27.10
2018-02-21T22:11:05.480Z,27.00
2018-02-21T22:13:33.122Z,27.00
2018-02-21T22:16:00.799Z,27.00
2018-02-21T22:18:29.195Z,27.00
2018-02-21T22:20:56.866Z,27.00
2018-02-21T22:23:24.538Z,27.00
2018-02-21T22:25:53.005Z,27.00
2018-02-21T22:28:21.426Z,27.00
2018-02-21T22:30:49.110Z,26.90
2018-02-21T22:33:16.770Z,26.90
2018-02-21T22:35:44.430Z,26.90
2018-02-21T22:38:12.094Z,26.80
2018-02-21T22:40:40.500Z,26.80
2018-02-21T22:43:08.143Z,26.80
2018-02-21T22:45:35.787Z,26.80
2018-02-21T22:48:04.233Z,27.40
2018-02-21T22:50:31.876Z,26.90
2018-02-21T22:53:00.290Z,26.90
2018-02-21T22:55:27.958Z,26.90
2018-02-21T22:57:55.618Z,26.90
2018-02-21T23:00:23.283Z,26.90
2018-02-21T23:02:50.931Z,26.90
2018-02-21T23:05:18.590Z,26.90
2018-02-21T23:07:46.223Z,27.50
2018-02-21T23:10:14.634Z,26.90
2018-02-21T23:12:42.278Z,26.90
2018-02-21T23:15:09.951Z,26.90
2018-02-21T23:17:38.355Z,27.00
2018-02-21T23:20:06.014Z,27.00
2018-02-21T23:22:33.661Z,27.00
2018-02-21T23:25:01.299Z,27.00
2018-02-21T23:27:28.931Z,27.00
2018-02-21T23:29:57.360Z,27.00
2018-02-21T23:32:25.773Z,27.30
2018-02-21T23:34:53.426Z,27.00
2018-02-21T23:37:21.066Z,27.00
2018-02-21T23:39:48.700Z,27.00
2018-02-21T23:42:16.370Z,27.10
2018-02-21T23:44:44.035Z,27.10
2018-02-21T23:47:11.670Z,27.20
2018-02-21T23:49:39.312Z,27.20
2018-02-21T23:52:07.742Z,27.30
2018-02-21T23:54:35.396Z,27.20
2018-02-21T23:57:03.031Z,27.30
2018-02-21T23:59:30.687Z,27.30
